Time;durP1;ratioP1;P1;durP2;ratioP2;P2;SDS_P1;SDS_P2;PMS_P1;PMS_P2;Temp;Humidity;BMP_temperature;BMP_pressure;BME280_temperature;BME280_humidity;BME280_pressure;Samples;Min_cycle;Max_cycle;Signal;HPM_P1;HPM_P2
2022/04/06 00:00:17;;;;;;;9.83;8.93;;;7.90;99.90;;;;;;5096221;28;20192;-71
2022/04/06 00:02:45;;;;;;;9.97;9.03;;;8.00;99.90;;;;;;5096098;28;20281;-71
2022/04/06 00:05:12;;;;;;;11.37;9.57;;;7.90;99.90;;;;;;5095658;28;20197;-71
2022/04/06 00:07:39;;;;;;;10.23;9.17;;;7.90;99.90;;;;;;5095395;28;20224;-72
2022/04/06 00:10:09;;;;;;;10.57;9.20;;;7.90;99.90;;;;;;5095545;28;20201;-72
2022/04/06 00:12:37;;;;;;;11.37;9.60;;;7.90;99.90;;;;;;5095807;28;20218;-72
2022/04/06 00:15:05;;;;;;;11.80;9.60;;;7.80;99.90;;;;;;5096136;28;20242;-72
2022/04/06 00:17:32;;;;;;;11.53;9.37;;;7.70;99.90;;;;;;5095525;28;20549;-72
2022/04/06 00:19:58;;;;;;;12.47;10.23;;;7.70;99.90;;;;;;5095560;28;20196;-73
2022/04/06 00:22:25;;;;;;;11.67;10.03;;;7.70;99.90;;;;;;5094471;28;20644;-72
2022/04/06 00:24:52;;;;;;;11.17;10.07;;;7.60;99.90;;;;;;5096639;28;20726;-72
2022/04/06 00:27:20;;;;;;;12.93;11.63;;;7.60;99.90;;;;;;5102442;28;20234;-73
2022/04/06 00:29:47;;;;;;;12.20;10.93;;;7.60;99.90;;;;;;5103026;28;20289;-72
2022/04/06 00:32:14;;;;;;;12.67;11.37;;;7.60;99.90;;;;;;5102399;28;20192;-72
2022/04/06 00:37:25;;;;;;;13.93;11.60;;;7.60;99.90;;;;;;5097590;28;20238;-71
2022/04/06 00:39:51;;;;;;;12.53;11.30;;;7.50;99.90;;;;;;5098492;28;20204;-71
2022/04/06 00:42:19;;;;;;;14.53;11.93;;;7.50;99.90;;;;;;5094432;28;20709;-71
2022/04/06 00:44:47;;;;;;;14.23;12.47;;;7.50;99.90;;;;;;5094009;28;20204;-71
2022/04/06 00:47:13;;;;;;;13.47;12.07;;;7.50;99.90;;;;;;5093872;28;20236;-72
2022/04/06 00:49:40;;;;;;;14.37;12.87;;;7.50;99.90;;;;;;5094632;28;20196;-71
2022/04/06 00:52:08;;;;;;;12.87;11.57;;;7.50;99.90;;;;;;5094195;28;20238;-71
2022/04/06 00:54:36;;;;;;;14.10;12.63;;;7.50;99.90;;;;;;5094116;28;20258;-71
2022/04/06 00:57:03;;;;;;;13.10;11.80;;;7.50;99.90;;;;;;5094001;28;20563;-71
2022/04/06 00:59:31;;;;;;;13.57;12.17;;;7.50;99.90;;;;;;5093865;28;20254;-71
2022/04/06 01:01:59;;;;;;;13.67;12.07;;;7.50;99.90;;;;;;5093843;28;20203;-71
2022/04/06 01:04:26;;;;;;;14.37;12.83;;;7.50;99.90;;;;;;5093663;28;20199;-72
2022/04/06 01:06:54;;;;;;;13.80;12.27;;;7.50;99.90;;;;;;5093526;28;20222;-71
2022/04/06 01:09:22;;;;;;;13.67;11.93;;;7.40;99.90;;;;;;5093458;28;20200;-72
2022/04/06 01:11:49;;;;;;;14.67;13.17;;;7.40;99.90;;;;;;5093562;28;20285;-71
2022/04/06 01:14:17;;;;;;;14.80;11.90;;;7.50;99.90;;;;;;5093464;28;20536;-71
2022/04/06 01:16:57;;;;;;;14.90;12.40;;;7.40;99.90;;;;;;5093747;28;20388;-71
2022/04/06 01:19:24;;;;;;;14.73;12.90;;;7.50;99.90;;;;;;5093503;28;20732;-70
2022/04/06 01:21:50;;;;;;;13.90;12.50;;;7.50;99.90;;;;;;5093678;28;20222;-70
2022/04/06 01:24:19;;;;;;;15.17;13.57;;;7.50;99.90;;;;;;5094063;28;20695;-71
2022/04/06 01:26:45;;;;;;;15.40;13.10;;;7.50;99.90;;;;;;5094005;28;20239;-70
2022/04/06 01:29:12;;;;;;;15.00;13.40;;;7.40;99.90;;;;;;5094581;28;20196;-70
2022/04/06 01:31:39;;;;;;;16.07;13.30;;;7.40;99.90;;;;;;5093970;28;20601;-71
2022/04/06 01:34:05;;;;;;;15.53;14.03;;;7.40;99.90;;;;;;5093295;28;20257;-70
2022/04/06 01:36:32;;;;;;;15.67;14.07;;;7.40;99.90;;;;;;5094464;28;20208;-70
2022/04/06 01:38:59;;;;;;;17.17;15.10;;;7.40;99.90;;;;;;5093749;28;20246;-71
2022/04/06 01:41:32;;;;;;;15.80;14.20;;;7.40;99.90;;;;;;5094249;28;20200;-69
2022/04/06 01:43:59;;;;;;;18.20;15.10;;;7.40;99.90;;;;;;5094141;28;20200;-70
2022/04/06 01:46:26;;;;;;;17.57;15.77;;;7.40;99.90;;;;;;5093930;28;20280;-70
2022/04/06 01:54:23;;;;;;;18.20;16.20;;;7.30;99.90;;;;;;5093578;28;20247;-69
2022/04/06 01:56:51;;;;;;;17.03;15.23;;;7.40;99.90;;;;;;5093444;28;20257;-69
2022/04/06 01:59:18;;;;;;;17.73;15.60;;;7.40;99.90;;;;;;5093188;28;20666;-70
2022/04/06 02:01:48;;;;;;;17.77;15.90;;;7.30;99.90;;;;;;5093320;28;20200;-70
2022/04/06 02:04:15;;;;;;;16.63;14.93;;;7.30;99.90;;;;;;5093125;28;20294;-70
2022/04/06 02:06:42;;;;;;;16.93;15.10;;;7.30;99.90;;;;;;5093556;28;20224;-70
2022/04/06 02:09:10;;;;;;;16.50;14.80;;;7.30;99.90;;;;;;5093246;28;20200;-70
2022/04/06 02:11:37;;;;;;;17.40;15.53;;;7.40;99.90;;;;;;5093119;28;20246;-70
2022/04/06 02:14:06;;;;;;;16.97;14.97;;;7.40;99.90;;;;;;5093231;28;20607;-70
2022/04/06 02:16:34;;;;;;;17.07;15.27;;;7.40;99.90;;;;;;5093079;28;20258;-70
2022/04/06 02:19:01;;;;;;;16.97;15.10;;;7.40;99.90;;;;;;5093583;28;20196;-70
2022/04/06 02:21:27;;;;;;;16.93;15.13;;;7.40;99.90;;;;;;5094210;28;20242;-70
2022/04/06 02:23:54;;;;;;;17.30;15.20;;;7.40;99.90;;;;;;5094779;28;20228;-70
2022/04/06 02:26:21;;;;;;;18.00;15.80;;;7.40;99.90;;;;;;5095694;28;20200;-70
2022/04/06 02:28:48;;;;;;;18.87;15.90;;;7.40;99.90;;;;;;5096614;28;20196;-70
2022/04/06 02:31:15;;;;;;;18.07;15.87;;;7.40;99.90;;;;;;5098288;28;20716;-73
2022/04/06 02:33:42;;;;;;;18.17;15.73;;;7.40;99.90;;;;;;5097798;28;20197;-70
2022/04/06 02:36:09;;;;;;;19.23;15.63;;;7.40;99.90;;;;;;5097974;28;20209;-70
2022/04/06 02:38:38;;;;;;;19.83;16.07;;;7.40;99.90;;;;;;5096929;28;20201;-70
2022/04/06 02:41:05;;;;;;;17.30;15.10;;;7.40;99.90;;;;;;5093681;28;20622;-70
2022/04/06 02:43:32;;;;;;;19.47;15.77;;;7.40;99.90;;;;;;5093169;28;20325;-70
2022/04/06 02:45:59;;;;;;;16.27;14.40;;;7.40;99.90;;;;;;5094981;28;20230;-70
2022/04/06 02:48:27;;;;;;;18.70;15.73;;;7.40;99.90;;;;;;5096655;28;20223;-71
2022/04/06 02:50:53;;;;;;;18.83;15.37;;;7.40;99.90;;;;;;5096593;28;20253;-70
2022/04/06 02:53:20;;;;;;;17.13;15.30;;;7.50;99.90;;;;;;5096450;28;20675;-70
2022/04/06 02:55:48;;;;;;;17.00;14.83;;;7.50;99.90;;;;;;5096344;28;20540;-70
2022/04/06 02:58:14;;;;;;;16.50;14.73;;;7.40;99.90;;;;;;5096183;28;20211;-70
2022/04/06 03:00:41;;;;;;;17.53;15.47;;;7.50;99.90;;;;;;5096540;28;20203;-70
2022/04/06 03:03:08;;;;;;;16.93;15.10;;;7.50;99.90;;;;;;5096273;28;20548;-70
2022/04/06 03:05:39;;;;;;;20.27;16.07;;;7.50;99.90;;;;;;5096453;28;20193;-70
2022/04/06 03:08:06;;;;;;;15.37;13.77;;;7.50;99.90;;;;;;5096364;28;20236;-70
2022/04/06 03:10:33;;;;;;;20.00;14.90;;;7.50;99.90;;;;;;5096671;28;20222;-70
2022/04/06 03:13:00;;;;;;;16.37;14.57;;;7.50;99.90;;;;;;5096238;28;20590;-70
2022/04/06 03:15:27;;;;;;;16.23;14.53;;;7.50;99.90;;;;;;5096058;28;20556;-70
2022/04/06 03:17:55;;;;;;;15.83;14.13;;;7.50;99.90;;;;;;5096089;28;20235;-71
2022/04/06 03:20:21;;;;;;;20.83;16.03;;;7.50;99.90;;;;;;5096159;28;20208;-70
2022/04/06 03:22:49;;;;;;;15.93;14.07;;;7.50;99.90;;;;;;5095953;28;20559;-69
2022/04/06 03:25:16;;;;;;;17.93;15.17;;;7.50;99.90;;;;;;5096145;28;20212;-71
2022/04/06 03:27:44;;;;;;;18.00;14.07;;;7.50;99.90;;;;;;5096246;28;20277;-69
2022/04/06 03:30:12;;;;;;;15.83;14.20;;;7.50;99.90;;;;;;5095919;28;20200;-70
2022/04/06 03:32:39;;;;;;;17.83;14.53;;;7.50;99.90;;;;;;5095917;28;20203;-69
2022/04/06 03:35:07;;;;;;;15.93;14.23;;;7.50;99.90;;;;;;5095692;28;20196;-69
2022/04/06 03:37:33;;;;;;;16.87;15.07;;;7.50;99.90;;;;;;5097044;28;20196;-70
2022/04/06 03:40:05;;;;;;;15.90;14.23;;;7.50;99.90;;;;;;5096691;28;20207;-70
2022/04/06 03:42:31;;;;;;;18.17;15.03;;;7.50;99.90;;;;;;5097823;28;20201;-70
2022/04/06 03:44:58;;;;;;;17.67;15.13;;;7.60;99.90;;;;;;5096844;28;20197;-72
2022/04/06 03:47:29;;;;;;;16.07;14.30;;;7.60;99.90;;;;;;5096427;28;20220;-70
2022/04/06 03:49:55;;;;;;;16.87;14.70;;;7.60;99.90;;;;;;5095950;28;20247;-72
2022/04/06 03:52:22;;;;;;;15.70;13.63;;;7.60;99.90;;;;;;5097180;28;20716;-69
2022/04/06 03:54:49;;;;;;;16.93;14.50;;;7.60;99.90;;;;;;5098314;28;20200;-70
2022/04/06 03:57:16;;;;;;;15.03;13.43;;;7.60;99.90;;;;;;5096626;28;20564;-71
2022/04/06 03:59:43;;;;;;;16.13;14.40;;;7.60;99.90;;;;;;5096905;28;20196;-70
2022/04/06 04:02:10;;;;;;;15.90;13.97;;;7.60;99.90;;;;;;5096074;28;20196;-70
2022/04/06 04:04:37;;;;;;;16.37;14.63;;;7.60;99.90;;;;;;5095315;28;20201;-70
2022/04/06 04:07:06;;;;;;;16.07;14.37;;;7.60;99.90;;;;;;5095114;28;20220;-70
2022/04/06 04:09:33;;;;;;;15.50;13.90;;;7.60;99.90;;;;;;5095197;28;20199;-74
2022/04/06 04:12:00;;;;;;;16.17;13.67;;;7.60;99.90;;;;;;5095447;28;20200;-71
2022/04/06 04:14:30;;;;;;;18.17;15.03;;;7.60;99.90;;;;;;5097074;28;20208;-70
2022/04/06 04:16:57;;;;;;;15.93;14.23;;;7.60;99.90;;;;;;5095001;28;20753;-72
2022/04/06 04:19:24;;;;;;;16.37;14.67;;;7.60;99.90;;;;;;5095120;28;20246;-70
2022/04/06 04:21:51;;;;;;;17.87;14.33;;;7.70;99.90;;;;;;5095227;28;20724;-71
2022/04/06 04:24:17;;;;;;;15.43;13.80;;;7.70;99.90;;;;;;5094797;28;20278;-72
2022/04/06 04:26:44;;;;;;;15.93;14.23;;;7.70;99.90;;;;;;5094967;28;20552;-70
2022/04/06 04:29:10;;;;;;;18.33;14.97;;;7.70;99.90;;;;;;5094716;28;20239;-70
2022/04/06 04:31:38;;;;;;;15.30;13.27;;;7.70;99.90;;;;;;5094725;28;20258;-71
2022/04/06 04:34:05;;;;;;;15.80;14.20;;;7.70;99.90;;;;;;5095721;28;20648;-70
2022/04/06 04:36:32;;;;;;;15.60;13.90;;;7.70;99.90;;;;;;5096219;28;20252;-71
2022/04/06 04:38:58;;;;;;;15.77;14.20;;;7.70;99.90;;;;;;5094817;28;20200;-70
2022/04/06 04:41:26;;;;;;;16.70;14.90;;;7.70;99.90;;;;;;5094715;28;20228;-70
2022/04/06 04:43:53;;;;;;;14.10;12.70;;;7.70;99.90;;;;;;5094674;28;20199;-71
2022/04/06 04:46:20;;;;;;;15.70;14.10;;;7.70;99.90;;;;;;5095577;28;20200;-74
2022/04/06 04:48:48;;;;;;;16.10;14.37;;;7.70;99.90;;;;;;5096192;28;20247;-71
2022/04/06 04:51:15;;;;;;;15.90;13.97;;;7.70;99.90;;;;;;5095003;28;20200;-72
2022/04/06 04:53:43;;;;;;;14.53;12.90;;;7.70;99.90;;;;;;5096379;28;20246;-70
2022/04/06 04:56:10;;;;;;;29.93;26.20;;;7.70;99.90;;;;;;5095690;28;20655;-73
2022/04/06 04:58:36;;;;;;;19.97;17.87;;;7.70;99.90;;;;;;5095655;28;20725;-74
2022/04/06 05:01:04;;;;;;;14.80;13.20;;;7.60;99.90;;;;;;5095657;28;20205;-70
2022/04/06 05:03:30;;;;;;;15.57;13.93;;;7.60;99.90;;;;;;5095364;28;20200;-71
2022/04/06 05:05:58;;;;;;;15.90;13.80;;;7.70;99.90;;;;;;5094198;28;20198;-71
2022/04/06 05:08:25;;;;;;;15.43;13.80;;;7.70;99.90;;;;;;5094361;28;20232;-72
2022/04/06 05:10:53;;;;;;;15.33;13.73;;;7.70;99.90;;;;;;5094719;28;20242;-72
2022/04/06 05:13:20;;;;;;;14.70;13.10;;;7.80;99.90;;;;;;5094268;28;20200;-71
2022/04/06 05:15:47;;;;;;;15.30;12.53;;;7.80;99.90;;;;;;5094141;28;20204;-72
2022/04/06 05:18:14;;;;;;;13.40;12.00;;;7.80;99.90;;;;;;5093963;28;20722;-71
2022/04/06 05:20:41;;;;;;;14.50;12.00;;;7.80;99.90;;;;;;5094407;28;20196;-73
2022/04/06 05:23:09;;;;;;;14.60;12.93;;;7.80;99.90;;;;;;5094249;28;20220;-72
2022/04/06 05:25:36;;;;;;;13.80;12.37;;;7.80;99.90;;;;;;5094720;28;20196;-72
2022/04/06 05:28:03;;;;;;;13.47;12.03;;;7.80;99.90;;;;;;5094443;28;20208;-72
2022/04/06 05:30:32;;;;;;;13.77;12.20;;;7.80;99.90;;;;;;5094379;28;20273;-71
2022/04/06 05:32:59;;;;;;;13.70;12.30;;;7.80;99.90;;;;;;5096106;28;20250;-71
2022/04/06 05:35:26;;;;;;;13.00;11.70;;;7.90;99.90;;;;;;5096718;28;20196;-72
2022/04/06 05:37:56;;;;;;;14.37;12.53;;;7.90;99.90;;;;;;5097922;28;20556;-72
2022/04/06 05:40:25;;;;;;;15.80;11.97;;;7.90;99.90;;;;;;5098604;28;20660;-72
2022/04/06 05:42:51;;;;;;;12.33;11.07;;;7.90;99.90;;;;;;5097893;28;20196;-74
2022/04/06 05:45:18;;;;;;;13.77;12.33;;;8.00;99.90;;;;;;5098955;28;20196;-73
2022/04/06 05:47:45;;;;;;;14.43;12.40;;;8.00;99.90;;;;;;5093647;28;20512;-73
2022/04/06 05:50:13;;;;;;;14.63;11.67;;;8.00;99.90;;;;;;5095709;28;20235;-72
2022/04/06 05:52:40;;;;;;;11.87;10.77;;;8.00;99.90;;;;;;5097324;28;20219;-72
2022/04/06 05:55:07;;;;;;;11.83;10.60;;;8.10;99.90;;;;;;5098795;28;20200;-75
2022/04/06 05:57:35;;;;;;;12.10;10.77;;;8.10;99.90;;;;;;5099260;28;20203;-74
2022/04/06 06:00:04;;;;;;;11.37;9.93;;;8.20;99.90;;;;;;5099491;28;20653;-73
2022/04/06 06:02:30;;;;;;;10.90;9.67;;;8.20;99.90;;;;;;5096400;28;20224;-72
2022/04/06 06:04:57;;;;;;;10.63;9.63;;;8.30;99.90;;;;;;5095612;28;20184;-75
2022/04/06 06:07:24;;;;;;;11.00;9.53;;;8.30;99.90;;;;;;5096962;28;20197;-73
2022/04/06 06:09:50;;;;;;;11.87;9.97;;;8.40;99.90;;;;;;5093323;28;20189;-72
2022/04/06 06:12:17;;;;;;;10.77;9.67;;;8.40;99.90;;;;;;5096460;28;20342;-73
2022/04/06 06:14:45;;;;;;;11.27;10.07;;;8.40;99.90;;;;;;5096660;28;20194;-73
2022/04/06 06:17:12;;;;;;;11.50;10.30;;;8.40;99.90;;;;;;5096696;28;20219;-73
2022/04/06 06:19:38;;;;;;;11.33;10.10;;;8.40;99.90;;;;;;5095706;28;20200;-72
2022/04/06 06:22:05;;;;;;;10.63;9.37;;;8.50;99.90;;;;;;5098995;28;20226;-72
2022/04/06 06:24:32;;;;;;;11.57;8.93;;;8.50;99.90;;;;;;5100943;28;20265;-76
2022/04/06 06:26:59;;;;;;;12.30;9.93;;;8.50;99.90;;;;;;5099833;28;20304;-72
2022/04/06 06:29:25;;;;;;;10.83;9.07;;;8.60;99.90;;;;;;5096873;28;20245;-73
2022/04/06 06:31:54;;;;;;;10.00;8.87;;;8.60;99.90;;;;;;5096332;28;20224;-74
2022/04/06 06:34:21;;;;;;;10.60;8.63;;;8.70;99.90;;;;;;5096193;28;20192;-74
2022/04/06 06:36:48;;;;;;;10.17;9.00;;;8.80;99.90;;;;;;5098215;28;20192;-76
2022/04/06 06:39:15;;;;;;;10.17;8.53;;;8.80;99.90;;;;;;5095968;28;20192;-75
2022/04/06 06:41:43;;;;;;;11.17;8.07;;;8.80;99.90;;;;;;5097529;28;20237;-74
2022/04/06 06:44:10;;;;;;;10.47;8.67;;;8.90;99.90;;;;;;5095896;28;20196;-75
2022/04/06 06:46:36;;;;;;;8.73;7.93;;;8.90;99.90;;;;;;5095651;28;20205;-74
2022/04/06 06:49:04;;;;;;;10.13;7.93;;;9.10;99.90;;;;;;5094996;28;20248;-74
2022/04/06 06:51:31;;;;;;;10.57;8.00;;;9.10;99.90;;;;;;5093236;28;20210;-74
2022/04/06 06:53:59;;;;;;;8.63;7.73;;;9.20;99.90;;;;;;5096196;28;20944;-74
2022/04/06 06:56:26;;;;;;;8.20;7.33;;;9.20;99.90;;;;;;5095322;28;20266;-75
2022/04/06 06:58:53;;;;;;;9.33;7.37;;;9.40;99.90;;;;;;5094784;28;20590;-76
2022/04/06 07:01:19;;;;;;;8.50;7.70;;;9.40;99.90;;;;;;5094756;28;20196;-79
2022/04/06 07:03:46;;;;;;;7.33;6.60;;;9.40;99.90;;;;;;5094836;28;20189;-73
2022/04/06 07:06:14;;;;;;;7.53;6.83;;;9.50;99.90;;;;;;5095250;28;20188;-92
2022/04/06 07:08:41;;;;;;;7.90;7.10;;;9.70;99.90;;;;;;5095006;28;20297;-76
2022/04/06 07:11:08;;;;;;;10.00;7.20;;;9.80;99.90;;;;;;5094581;28;20245;-74
2022/04/06 07:13:34;;;;;;;8.63;7.00;;;9.80;99.90;;;;;;5094413;28;20655;-74
2022/04/06 07:16:01;;;;;;;8.03;7.33;;;9.90;99.90;;;;;;5094023;28;20559;-76
2022/04/06 07:18:29;;;;;;;6.90;6.20;;;10.00;99.90;;;;;;5094180;28;20269;-74
2022/04/06 07:20:56;;;;;;;7.40;6.63;;;9.90;99.90;;;;;;5094319;28;20203;-75
2022/04/06 07:23:24;;;;;;;7.60;6.63;;;10.00;99.90;;;;;;5094641;28;20229;-73
2022/04/06 07:25:50;;;;;;;7.87;6.50;;;10.10;99.90;;;;;;5093882;28;20438;-74
2022/04/06 07:28:17;;;;;;;8.17;7.00;;;10.30;99.90;;;;;;5093956;28;20695;-74
2022/04/06 07:30:44;;;;;;;7.00;6.40;;;10.30;99.90;;;;;;5093963;28;20192;-75
2022/04/06 07:33:13;;;;;;;7.10;6.40;;;10.10;99.90;;;;;;5092787;28;20249;-75
2022/04/06 07:35:39;;;;;;;10.63;9.23;;;10.10;99.90;;;;;;5094405;28;20188;-76
2022/04/06 07:38:06;;;;;;;7.43;6.10;;;10.40;99.90;;;;;;5094806;28;20243;-76
2022/04/06 07:40:35;;;;;;;7.37;6.43;;;10.20;99.90;;;;;;5095277;28;20201;-74
2022/04/06 07:43:02;;;;;;;6.93;6.20;;;10.00;99.90;;;;;;5095361;28;20651;-76
2022/04/06 07:45:28;;;;;;;8.80;5.90;;;10.00;99.90;;;;;;5095140;28;20207;-76
2022/04/06 07:47:55;;;;;;;9.03;6.27;;;10.00;99.90;;;;;;5095344;28;20257;-76
2022/04/06 07:50:23;;;;;;;9.60;6.40;;;10.00;99.90;;;;;;5095280;28;20249;-76
2022/04/06 07:52:49;;;;;;;6.63;6.00;;;10.20;99.90;;;;;;5095192;28;20204;-76
2022/04/06 07:55:17;;;;;;;6.73;5.87;;;9.90;99.90;;;;;;5095222;28;20204;-75
2022/04/06 07:57:45;;;;;;;7.87;6.10;;;9.90;99.90;;;;;;5095338;28;20231;-74
2022/04/06 08:00:15;;;;;;;8.63;6.10;;;10.00;99.90;;;;;;5094985;28;20234;-76
2022/04/06 08:02:43;;;;;;;6.27;5.63;;;9.80;99.90;;;;;;5095281;28;20285;-77
2022/04/06 08:05:10;;;;;;;6.63;5.80;;;9.90;99.90;;;;;;5094694;28;20655;-76
2022/04/06 08:07:39;;;;;;;6.90;6.20;;;9.90;99.90;;;;;;5094887;28;20192;-76
2022/04/06 08:10:08;;;;;;;6.30;5.70;;;9.90;99.90;;;;;;5095103;28;20290;-76
2022/04/06 08:12:34;;;;;;;6.83;6.03;;;10.10;99.90;;;;;;5094741;28;20563;-76
2022/04/06 08:15:03;;;;;;;7.20;5.90;;;9.80;99.90;;;;;;5094613;28;20271;-76
2022/04/06 08:17:32;;;;;;;7.43;6.20;;;9.70;99.90;;;;;;5094875;28;20204;-76
2022/04/06 08:19:59;;;;;;;6.50;5.90;;;9.70;99.90;;;;;;5094526;28;20671;-76
2022/04/06 08:22:26;;;;;;;7.97;6.63;;;9.70;99.90;;;;;;5094643;28;20655;-76
2022/04/06 08:24:53;;;;;;;6.37;5.77;;;9.70;99.90;;;;;;5094389;28;20235;-75
2022/04/06 08:27:19;;;;;;;7.37;6.23;;;9.60;99.90;;;;;;5095155;28;20204;-75
2022/04/06 08:29:46;;;;;;;5.87;5.27;;;9.60;99.90;;;;;;5094459;28;20228;-76
2022/04/06 08:32:14;;;;;;;8.00;6.13;;;9.80;99.90;;;;;;5094297;28;20227;-76
2022/04/06 08:34:41;;;;;;;8.03;6.10;;;9.90;99.90;;;;;;5094397;28;20204;-77
2022/04/06 08:37:09;;;;;;;8.57;6.97;;;10.10;99.90;;;;;;5094164;28;20716;-76
2022/04/06 08:39:35;;;;;;;5.70;5.20;;;10.10;99.90;;;;;;5094318;28;20210;-74
2022/04/06 08:42:02;;;;;;;6.50;5.53;;;10.10;99.90;;;;;;5094003;28;20200;-75
2022/04/06 08:44:29;;;;;;;6.10;5.50;;;10.20;99.90;;;;;;5094069;28;20234;-74
2022/04/06 08:47:03;;;;;;;7.10;5.57;;;10.20;99.90;;;;;;5094261;28;20196;-75
2022/04/06 08:49:32;;;;;;;9.07;5.77;;;10.10;99.90;;;;;;5093991;28;20227;-74
2022/04/06 08:52:00;;;;;;;6.90;6.03;;;10.40;99.90;;;;;;5094055;28;20240;-76
2022/04/06 08:54:27;;;;;;;5.80;5.20;;;10.20;99.90;;;;;;5093798;28;20287;-75
2022/04/06 08:56:55;;;;;;;10.27;5.60;;;10.20;99.90;;;;;;5093991;28;20196;-74
2022/04/06 08:59:22;;;;;;;6.27;5.00;;;10.10;99.90;;;;;;5094050;28;20196;-75
2022/04/06 09:01:49;;;;;;;6.77;6.03;;;10.10;99.90;;;;;;5093853;28;20271;-75
2022/04/06 09:04:15;;;;;;;6.53;5.27;;;10.10;99.90;;;;;;5093740;28;20200;-75
2022/04/06 09:06:46;;;;;;;6.27;4.70;;;10.20;99.90;;;;;;5093603;28;20200;-75
2022/04/06 09:09:20;;;;;;;5.50;5.00;;;10.10;99.90;;;;;;5093703;28;20220;-75
2022/04/06 09:11:48;;;;;;;5.87;4.63;;;10.10;99.90;;;;;;5093622;28;20685;-75
2022/04/06 09:14:14;;;;;;;7.13;5.30;;;10.30;99.90;;;;;;5093939;28;20207;-76
2022/04/06 09:16:41;;;;;;;5.97;5.37;;;10.40;99.90;;;;;;5093650;28;20618;-76
2022/04/06 09:19:09;;;;;;;6.97;5.10;;;10.40;99.90;;;;;;5093511;28;20200;-75
2022/04/06 09:21:40;;;;;;;7.13;5.20;;;10.20;99.90;;;;;;5093482;28;20283;-75
2022/04/06 09:24:14;;;;;;;6.53;4.97;;;10.10;99.90;;;;;;5093696;28;20236;-75
2022/04/06 09:26:41;;;;;;;7.87;4.80;;;10.10;99.90;;;;;;5093475;28;20282;-74
2022/04/06 09:29:11;;;;;;;5.70;5.10;;;10.40;99.90;;;;;;5093154;28;20745;-74
2022/04/06 09:31:39;;;;;;;6.33;4.90;;;10.60;99.90;;;;;;5093206;28;20738;-74
2022/04/06 09:34:05;;;;;;;5.23;4.73;;;10.70;99.90;;;;;;5093377;28;20283;-75
2022/04/06 09:36:34;;;;;;;4.97;4.00;;;10.80;99.90;;;;;;5093501;28;20200;-76
2022/04/06 09:39:01;;;;;;;4.67;4.23;;;10.80;99.90;;;;;;5093134;28;20204;-76
2022/04/06 09:41:30;;;;;;;6.37;4.50;;;10.80;99.90;;;;;;5093363;28;20246;-76
2022/04/06 09:44:08;;;;;;;5.87;4.20;;;10.80;99.90;;;;;;5093188;28;20207;-75
2022/04/06 09:49:20;;;;;;;5.73;4.00;;;10.90;99.90;;;;;;5093253;28;20338;-76
2022/04/06 09:51:49;;;;;;;5.17;4.40;;;10.80;99.90;;;;;;5093185;28;20249;-76
2022/04/06 09:54:16;;;;;;;4.67;3.90;;;10.80;99.90;;;;;;5092653;28;20192;-75
2022/04/06 09:56:45;;;;;;;6.70;3.60;;;10.80;99.90;;;;;;5092352;28;20192;-76
2022/04/06 09:59:12;;;;;;;6.07;3.90;;;10.90;99.90;;;;;;5092991;28;20200;-76
2022/04/06 10:01:45;;;;;;;3.97;3.63;;;10.80;99.90;;;;;;5092865;28;20657;-75
2022/04/06 10:04:12;;;;;;;4.23;3.57;;;10.80;99.90;;;;;;5092792;28;20196;-75
2022/04/06 10:06:40;;;;;;;4.30;3.37;;;10.80;99.90;;;;;;5092787;28;20200;-76
2022/04/06 10:09:09;;;;;;;3.87;3.47;;;10.70;99.90;;;;;;5092553;28;20242;-76
2022/04/06 10:11:36;;;;;;;4.00;3.57;;;10.80;99.90;;;;;;5092575;28;20196;-76
2022/04/06 10:14:06;;;;;;;4.33;3.77;;;10.90;99.90;;;;;;5092539;28;20594;-73
2022/04/06 10:16:35;;;;;;;5.93;3.30;;;11.00;99.90;;;;;;5092565;28;20659;-76
2022/04/06 10:19:02;;;;;;;4.33;3.67;;;11.00;99.90;;;;;;5092611;28;20204;-74
2022/04/06 10:21:37;;;;;;;4.47;3.33;;;11.20;99.90;;;;;;5092774;28;20193;-74
2022/04/06 10:24:19;;;;;;;3.77;3.33;;;11.40;99.90;;;;;;5092474;28;20639;-76
2022/04/06 10:26:56;;;;;;;4.33;3.30;;;11.50;99.90;;;;;;5092670;28;20243;-75
2022/04/06 10:29:24;;;;;;;4.23;3.13;;;12.10;99.90;;;;;;5092407;28;20300;-74
2022/04/06 10:31:50;;;;;;;4.90;3.40;;;12.40;99.90;;;;;;5092167;28;20223;-74
2022/04/06 10:34:20;;;;;;;4.03;3.63;;;12.30;99.90;;;;;;5091800;28;20200;-74
2022/04/06 10:37:05;;;;;;;7.00;3.50;;;12.40;99.90;;;;;;5092034;28;20203;-75
2022/04/06 10:39:32;;;;;;;3.67;3.07;;;12.80;99.90;;;;;;5092934;28;20641;-75
2022/04/06 10:42:16;;;;;;;3.53;2.97;;;12.80;99.90;;;;;;5092385;28;20241;-75
2022/04/06 10:44:44;;;;;;;6.10;3.10;;;12.80;99.90;;;;;;5092358;28;20291;-75
2022/04/06 10:47:12;;;;;;;3.30;3.00;;;12.50;99.90;;;;;;5092319;28;21636;-75
2022/04/06 10:49:39;;;;;;;4.17;2.90;;;12.60;99.90;;;;;;5092271;28;20259;-76
2022/04/06 10:52:19;;;;;;;3.47;2.93;;;12.50;99.90;;;;;;5092497;28;20219;-75
2022/04/06 10:54:46;;;;;;;4.03;3.00;;;12.90;99.90;;;;;;5092310;28;20197;-75
2022/04/06 10:57:13;;;;;;;4.30;3.10;;;12.90;99.90;;;;;;5092242;28;20252;-75
2022/04/06 10:59:40;;;;;;;3.50;3.00;;;12.40;99.90;;;;;;5092414;28;20236;-75
2022/04/06 11:02:25;;;;;;;3.30;3.00;;;12.10;99.90;;;;;;5092356;28;20224;-76
2022/04/06 11:04:52;;;;;;;3.10;2.80;;;12.10;99.90;;;;;;5092167;28;20215;-76
2022/04/06 11:10:13;;;;;;;3.33;3.03;;;13.00;99.90;;;;;;5095136;28;20223;-76
2022/04/06 11:12:58;;;;;;;4.73;3.17;;;13.60;99.90;;;;;;5095897;28;20204;-76
2022/04/06 11:15:37;;;;;;;3.63;2.80;;;14.20;99.90;;;;;;5095495;28;20678;-76
2022/04/06 11:18:06;;;;;;;3.40;3.10;;;14.90;99.90;;;;;;5095513;28;20192;-76
2022/04/06 11:20:34;;;;;;;4.68;3.10;;;15.00;99.90;;;;;;5095708;28;20197;-76
2022/04/06 11:23:01;;;;;;;3.60;2.95;;;14.80;99.90;;;;;;5095457;28;20232;-75
2022/04/06 11:25:30;;;;;;;3.33;3.03;;;15.70;99.90;;;;;;5095566;28;20200;-75
2022/04/06 11:28:06;;;;;;;4.30;3.30;;;15.00;99.90;;;;;;5095470;28;20265;-74
2022/04/06 11:30:34;;;;;;;4.17;3.20;;;14.70;99.90;;;;;;5095239;28;20255;-74
2022/04/06 11:33:02;;;;;;;3.10;2.77;;;14.70;99.90;;;;;;5095172;28;20254;-75
2022/04/06 11:35:33;;;;;;;3.93;3.03;;;14.70;99.90;;;;;;5095432;28;20247;-74
2022/04/06 11:38:01;;;;;;;3.13;2.80;;;13.70;99.90;;;;;;5095176;28;20208;-74
2022/04/06 11:40:29;;;;;;;3.90;2.97;;;13.90;99.90;;;;;;5094993;28;20226;-75
2022/04/06 11:42:56;;;;;;;3.63;2.83;;;13.80;99.90;;;;;;5095079;28;20222;-75
2022/04/06 11:45:25;;;;;;;3.00;2.80;;;14.20;99.90;;;;;;5094927;28;20197;-75
2022/04/06 11:47:55;;;;;;;3.10;2.80;;;13.90;99.90;;;;;;5095032;28;20197;-76
2022/04/06 11:50:28;;;;;;;3.20;2.90;;;13.40;99.90;;;;;;5095130;28;20234;-76
2022/04/06 11:52:56;;;;;;;3.37;2.87;;;13.00;99.90;;;;;;5094498;28;20725;-75
2022/04/06 11:55:39;;;;;;;3.03;2.73;;;13.00;99.90;;;;;;5094614;28;20193;-75
2022/04/06 11:58:06;;;;;;;4.50;2.70;;;13.10;99.90;;;;;;5094720;28;20245;-76
2022/04/06 12:00:34;;;;;;;3.03;2.73;;;13.20;99.90;;;;;;5094705;28;20204;-76
2022/04/06 12:03:02;;;;;;;3.10;2.80;;;13.40;99.90;;;;;;5094942;28;20200;-75
2022/04/06 12:05:29;;;;;;;3.40;2.57;;;13.30;99.90;;;;;;5094979;28;20210;-75
2022/04/06 12:08:12;;;;;;;2.90;2.70;;;13.50;99.90;;;;;;5094454;28;20242;-75
2022/04/06 12:10:49;;;;;;;3.70;2.60;;;13.40;99.90;;;;;;5094179;28;20682;-75
2022/04/06 12:13:16;;;;;;;3.60;2.70;;;14.10;99.90;;;;;;5094344;28;20199;-75
2022/04/06 12:15:44;;;;;;;2.90;2.50;;;14.40;99.90;;;;;;5094289;28;20200;-75
2022/04/06 12:18:10;;;;;;;2.50;2.30;;;15.20;99.90;;;;;;5093513;28;20648;-75
2022/04/06 12:20:37;;;;;;;2.50;2.30;;;16.10;99.90;;;;;;5093880;28;20545;-75
2022/04/06 12:23:05;;;;;;;2.67;2.47;;;16.70;97.20;;;;;;5093612;28;20224;-75
2022/04/06 12:25:34;;;;;;;2.83;2.45;;;16.00;97.70;;;;;;5094056;28;20642;-76
2022/04/06 12:28:15;;;;;;;2.60;2.40;;;15.40;99.90;;;;;;5093759;28;20559;-75
2022/04/06 12:30:52;;;;;;;2.75;2.13;;;15.20;99.80;;;;;;5094196;28;20281;-76
2022/04/06 12:33:35;;;;;;;2.40;2.10;;;14.70;99.90;;;;;;5093941;28;20261;-75
2022/04/06 12:36:13;;;;;;;3.67;2.20;;;14.10;99.90;;;;;;5091867;28;20200;-75
2022/04/06 12:38:43;;;;;;;2.10;1.90;;;14.40;99.90;;;;;;5093909;28;20201;-74
2022/04/06 12:41:12;;;;;;;2.30;2.10;;;14.20;99.90;;;;;;5093829;28;20200;-75
2022/04/06 12:43:46;;;;;;;2.47;2.27;;;14.50;99.90;;;;;;5093531;28;20606;-75
2022/04/06 12:46:13;;;;;;;1.87;1.70;;;14.80;99.90;;;;;;5094079;28;20247;-75
2022/04/06 12:48:40;;;;;;;2.20;1.97;;;14.30;99.90;;;;;;5093724;28;20196;-75
2022/04/06 12:51:23;;;;;;;2.30;2.10;;;14.70;99.90;;;;;;5093750;28;20228;-75
2022/04/06 12:53:51;;;;;;;4.80;2.17;;;15.10;99.90;;;;;;5093717;28;20289;-75
2022/04/06 12:56:23;;;;;;;3.63;2.03;;;14.70;99.90;;;;;;5093011;28;20223;-75
2022/04/06 12:59:09;;;;;;;3.37;1.90;;;14.30;99.90;;;;;;5093666;28;20215;-74
2022/04/06 13:01:44;;;;;;;3.20;1.70;;;14.20;99.90;;;;;;5093731;28;20278;-75